sensor_id;sensor_type;location;lat;lon;timestamp;P1;durP1;ratioP1;P2;durP2;ratioP2
36855;SDS011;22788;51.434;6.786;2022-07-18T00:00:55;2.50;;;1.40;;
36855;SDS011;22788;51.434;6.786;2022-07-18T00:03:21;2.00;;;1.60;;
36855;SDS011;22788;51.434;6.786;2022-07-18T00:05:47;2.17;;;1.52;;
36855;SDS011;22788;51.434;6.786;2022-07-18T00:08:13;2.08;;;1.20;;
36855;SDS011;22788;51.434;6.786;2022-07-18T00:10:39;2.13;;;1.20;;
36855;SDS011;22788;51.434;6.786;2022-07-18T00:13:05;2.15;;;1.42;;
36855;SDS011;22788;51.434;6.786;2022-07-18T00:15:31;1.35;;;1.25;;
36855;SDS011;22788;51.434;6.786;2022-07-18T00:17:59;2.20;;;1.30;;
36855;SDS011;22788;51.434;6.786;2022-07-18T00:20:25;2.03;;;1.20;;
36855;SDS011;22788;51.434;6.786;2022-07-18T00:22:51;2.08;;;1.40;;
36855;SDS011;22788;51.434;6.786;2022-07-18T00:25:17;2.13;;;1.20;;
36855;SDS011;22788;51.434;6.786;2022-07-18T00:27:43;1.40;;;1.30;;
36855;SDS011;22788;51.434;6.786;2022-07-18T00:30:10;2.15;;;1.42;;
36855;SDS011;22788;51.434;6.786;2022-07-18T00:32:36;2.25;;;1.45;;
36855;SDS011;22788;51.434;6.786;2022-07-18T00:35:05;1.73;;;1.23;;
36855;SDS011;22788;51.434;6.786;2022-07-18T00:37:31;2.97;;;1.27;;
36855;SDS011;22788;51.434;6.786;2022-07-18T00:39:57;1.70;;;1.40;;
36855;SDS011;22788;51.434;6.786;2022-07-18T00:42:23;2.00;;;1.48;;
36855;SDS011;22788;51.434;6.786;2022-07-18T00:44:52;1.80;;;1.23;;
36855;SDS011;22788;51.434;6.786;2022-07-18T00:47:18;1.45;;;1.25;;
36855;SDS011;22788;51.434;6.786;2022-07-18T00:49:44;1.63;;;1.42;;
36855;SDS011;22788;51.434;6.786;2022-07-18T00:52:12;1.77;;;1.17;;
36855;SDS011;22788;51.434;6.786;2022-07-18T00:54:38;1.75;;;1.38;;
36855;SDS011;22788;51.434;6.786;2022-07-18T00:57:04;1.77;;;1.50;;
36855;SDS011;22788;51.434;6.786;2022-07-18T00:59:31;1.90;;;1.40;;
36855;SDS011;22788;51.434;6.786;2022-07-18T01:01:57;2.05;;;1.52;;
36855;SDS011;22788;51.434;6.786;2022-07-18T01:04:23;2.58;;;1.60;;
36855;SDS011;22788;51.434;6.786;2022-07-18T01:06:50;2.45;;;1.40;;
36855;SDS011;22788;51.434;6.786;2022-07-18T01:09:18;2.00;;;1.25;;
36855;SDS011;22788;51.434;6.786;2022-07-18T01:11:45;1.30;;;1.20;;
36855;SDS011;22788;51.434;6.786;2022-07-18T01:14:12;1.40;;;1.30;;
36855;SDS011;22788;51.434;6.786;2022-07-18T01:16:39;2.63;;;1.27;;
36855;SDS011;22788;51.434;6.786;2022-07-18T01:19:05;3.90;;;1.38;;
36855;SDS011;22788;51.434;6.786;2022-07-18T01:21:32;1.48;;;1.25;;
36855;SDS011;22788;51.434;6.786;2022-07-18T01:23:59;2.15;;;1.30;;
36855;SDS011;22788;51.434;6.786;2022-07-18T01:26:25;1.70;;;1.40;;
36855;SDS011;22788;51.434;6.786;2022-07-18T01:28:51;2.15;;;1.25;;
36855;SDS011;22788;51.434;6.786;2022-07-18T01:31:17;1.70;;;1.55;;
36855;SDS011;22788;51.434;6.786;2022-07-18T01:33:44;2.33;;;1.70;;
36855;SDS011;22788;51.434;6.786;2022-07-18T01:36:10;1.25;;;0.88;;
36855;SDS011;22788;51.434;6.786;2022-07-18T01:38:37;1.40;;;1.30;;
36855;SDS011;22788;51.434;6.786;2022-07-18T01:41:04;2.22;;;1.48;;
36855;SDS011;22788;51.434;6.786;2022-07-18T01:43:30;2.92;;;1.30;;
36855;SDS011;22788;51.434;6.786;2022-07-18T01:45:56;1.20;;;1.10;;
36855;SDS011;22788;51.434;6.786;2022-07-18T01:48:23;1.75;;;1.27;;
36855;SDS011;22788;51.434;6.786;2022-07-18T01:50:49;1.52;;;1.25;;
36855;SDS011;22788;51.434;6.786;2022-07-18T01:53:16;1.42;;;1.20;;
36855;SDS011;22788;51.434;6.786;2022-07-18T01:55:44;2.47;;;1.13;;
36855;SDS011;22788;51.434;6.786;2022-07-18T01:58:10;1.35;;;1.20;;
36855;SDS011;22788;51.434;6.786;2022-07-18T02:00:36;1.77;;;1.38;;
36855;SDS011;22788;51.434;6.786;2022-07-18T02:03:02;2.88;;;1.42;;
36855;SDS011;22788;51.434;6.786;2022-07-18T02:05:28;3.50;;;1.52;;
36855;SDS011;22788;51.434;6.786;2022-07-18T02:07:55;4.32;;;1.40;;
36855;SDS011;22788;51.434;6.786;2022-07-18T02:10:21;3.78;;;1.50;;
36855;SDS011;22788;51.434;6.786;2022-07-18T02:12:48;1.90;;;1.33;;
36855;SDS011;22788;51.434;6.786;2022-07-18T02:15:15;2.13;;;1.60;;
36855;SDS011;22788;51.434;6.786;2022-07-18T02:17:41;1.92;;;1.42;;
36855;SDS011;22788;51.434;6.786;2022-07-18T02:20:09;1.38;;;1.27;;
36855;SDS011;22788;51.434;6.786;2022-07-18T02:22:37;2.17;;;1.33;;
36855;SDS011;22788;51.434;6.786;2022-07-18T02:25:03;1.38;;;1.25;;
36855;SDS011;22788;51.434;6.786;2022-07-18T02:27:30;1.45;;;1.35;;
36855;SDS011;22788;51.434;6.786;2022-07-18T02:29:58;3.55;;;1.55;;
36855;SDS011;22788;51.434;6.786;2022-07-18T02:32:24;2.95;;;1.30;;
36855;SDS011;22788;51.434;6.786;2022-07-18T02:34:50;2.67;;;1.50;;
36855;SDS011;22788;51.434;6.786;2022-07-18T02:37:16;1.38;;;1.27;;
36855;SDS011;22788;51.434;6.786;2022-07-18T02:39:42;2.33;;;1.20;;
36855;SDS011;22788;51.434;6.786;2022-07-18T02:42:09;3.50;;;1.73;;
36855;SDS011;22788;51.434;6.786;2022-07-18T02:44:35;3.05;;;1.58;;
36855;SDS011;22788;51.434;6.786;2022-07-18T02:47:03;1.65;;;1.08;;
36855;SDS011;22788;51.434;6.786;2022-07-18T02:49:29;2.13;;;1.38;;
36855;SDS011;22788;51.434;6.786;2022-07-18T02:51:55;3.08;;;1.50;;
36855;SDS011;22788;51.434;6.786;2022-07-18T02:54:23;1.95;;;1.38;;
36855;SDS011;22788;51.434;6.786;2022-07-18T02:56:50;1.90;;;1.55;;
36855;SDS011;22788;51.434;6.786;2022-07-18T02:59:16;3.28;;;1.63;;
36855;SDS011;22788;51.434;6.786;2022-07-18T03:01:42;2.20;;;1.60;;
36855;SDS011;22788;51.434;6.786;2022-07-18T03:04:10;3.20;;;1.70;;
36855;SDS011;22788;51.434;6.786;2022-07-18T03:06:37;2.22;;;1.77;;
36855;SDS011;22788;51.434;6.786;2022-07-18T03:09:03;3.30;;;1.55;;
36855;SDS011;22788;51.434;6.786;2022-07-18T03:11:30;2.42;;;1.55;;
36855;SDS011;22788;51.434;6.786;2022-07-18T03:13:56;2.40;;;1.40;;
36855;SDS011;22788;51.434;6.786;2022-07-18T03:16:22;3.53;;;1.75;;
36855;SDS011;22788;51.434;6.786;2022-07-18T03:18:48;2.60;;;1.50;;
36855;SDS011;22788;51.434;6.786;2022-07-18T03:21:15;2.83;;;1.38;;
36855;SDS011;22788;51.434;6.786;2022-07-18T03:23:41;6.35;;;1.40;;
36855;SDS011;22788;51.434;6.786;2022-07-18T03:26:08;2.53;;;1.58;;
36855;SDS011;22788;51.434;6.786;2022-07-18T03:28:34;1.50;;;1.27;;
36855;SDS011;22788;51.434;6.786;2022-07-18T03:31:00;2.60;;;1.75;;
36855;SDS011;22788;51.434;6.786;2022-07-18T03:33:26;3.08;;;1.60;;
36855;SDS011;22788;51.434;6.786;2022-07-18T03:35:52;2.38;;;1.63;;
36855;SDS011;22788;51.434;6.786;2022-07-18T03:38:19;2.60;;;1.48;;
36855;SDS011;22788;51.434;6.786;2022-07-18T03:40:45;1.75;;;1.40;;
36855;SDS011;22788;51.434;6.786;2022-07-18T03:43:12;2.50;;;1.50;;
36855;SDS011;22788;51.434;6.786;2022-07-18T03:45:38;2.17;;;1.40;;
36855;SDS011;22788;51.434;6.786;2022-07-18T03:48:04;2.17;;;1.40;;
36855;SDS011;22788;51.434;6.786;2022-07-18T03:50:30;2.20;;;1.48;;
36855;SDS011;22788;51.434;6.786;2022-07-18T03:52:57;1.55;;;1.35;;
36855;SDS011;22788;51.434;6.786;2022-07-18T03:55:24;4.35;;;1.40;;
36855;SDS011;22788;51.434;6.786;2022-07-18T03:57:50;1.85;;;1.50;;
36855;SDS011;22788;51.434;6.786;2022-07-18T04:00:16;1.83;;;1.23;;
36855;SDS011;22788;51.434;6.786;2022-07-18T04:02:44;2.42;;;1.60;;
36855;SDS011;22788;51.434;6.786;2022-07-18T04:05:12;3.35;;;1.35;;
36855;SDS011;22788;51.434;6.786;2022-07-18T04:07:39;3.95;;;1.67;;
36855;SDS011;22788;51.434;6.786;2022-07-18T04:10:06;4.57;;;1.83;;
36855;SDS011;22788;51.434;6.786;2022-07-18T04:12:43;1.50;;;1.40;;
36855;SDS011;22788;51.434;6.786;2022-07-18T04:15:10;2.65;;;1.55;;
36855;SDS011;22788;51.434;6.786;2022-07-18T04:17:36;3.15;;;1.58;;
36855;SDS011;22788;51.434;6.786;2022-07-18T04:20:02;2.13;;;1.55;;
36855;SDS011;22788;51.434;6.786;2022-07-18T04:22:29;4.07;;;1.63;;
36855;SDS011;22788;51.434;6.786;2022-07-18T04:24:55;2.33;;;2.00;;
36855;SDS011;22788;51.434;6.786;2022-07-18T04:27:21;2.83;;;1.58;;
36855;SDS011;22788;51.434;6.786;2022-07-18T04:29:48;3.42;;;1.80;;
36855;SDS011;22788;51.434;6.786;2022-07-18T04:32:14;3.17;;;1.60;;
36855;SDS011;22788;51.434;6.786;2022-07-18T04:34:40;3.33;;;1.67;;
36855;SDS011;22788;51.434;6.786;2022-07-18T04:37:06;2.90;;;1.50;;
36855;SDS011;22788;51.434;6.786;2022-07-18T04:39:32;2.53;;;1.73;;
36855;SDS011;22788;51.434;6.786;2022-07-18T04:41:58;2.85;;;2.00;;
36855;SDS011;22788;51.434;6.786;2022-07-18T04:44:25;3.00;;;1.70;;
36855;SDS011;22788;51.434;6.786;2022-07-18T04:46:52;2.28;;;1.70;;
36855;SDS011;22788;51.434;6.786;2022-07-18T04:49:18;1.63;;;1.30;;
36855;SDS011;22788;51.434;6.786;2022-07-18T04:51:44;2.10;;;1.58;;
36855;SDS011;22788;51.434;6.786;2022-07-18T04:54:10;2.33;;;1.60;;
36855;SDS011;22788;51.434;6.786;2022-07-18T04:56:36;1.83;;;1.52;;
36855;SDS011;22788;51.434;6.786;2022-07-18T04:59:02;1.88;;;1.25;;
36855;SDS011;22788;51.434;6.786;2022-07-18T05:01:28;2.75;;;1.80;;
36855;SDS011;22788;51.434;6.786;2022-07-18T05:03:56;2.83;;;1.70;;
36855;SDS011;22788;51.434;6.786;2022-07-18T05:06:22;2.15;;;1.58;;
36855;SDS011;22788;51.434;6.786;2022-07-18T05:08:48;2.38;;;1.70;;
36855;SDS011;22788;51.434;6.786;2022-07-18T05:11:34;2.88;;;1.50;;
36855;SDS011;22788;51.434;6.786;2022-07-18T05:14:00;3.33;;;1.90;;
36855;SDS011;22788;51.434;6.786;2022-07-18T05:16:26;2.65;;;1.75;;
36855;SDS011;22788;51.434;6.786;2022-07-18T05:18:53;2.15;;;1.48;;
36855;SDS011;22788;51.434;6.786;2022-07-18T05:21:20;2.97;;;1.80;;
36855;SDS011;22788;51.434;6.786;2022-07-18T05:23:46;5.55;;;2.00;;
36855;SDS011;22788;51.434;6.786;2022-07-18T05:26:12;1.85;;;1.58;;
36855;SDS011;22788;51.434;6.786;2022-07-18T05:28:38;2.72;;;1.75;;
36855;SDS011;22788;51.434;6.786;2022-07-18T05:31:05;3.90;;;1.83;;
36855;SDS011;22788;51.434;6.786;2022-07-18T05:33:31;3.78;;;1.85;;
36855;SDS011;22788;51.434;6.786;2022-07-18T05:35:57;3.30;;;1.58;;
36855;SDS011;22788;51.434;6.786;2022-07-18T05:38:24;2.58;;;1.55;;
36855;SDS011;22788;51.434;6.786;2022-07-18T05:40:50;3.25;;;1.50;;
36855;SDS011;22788;51.434;6.786;2022-07-18T05:43:16;1.98;;;1.58;;
36855;SDS011;22788;51.434;6.786;2022-07-18T05:45:43;2.53;;;1.90;;
36855;SDS011;22788;51.434;6.786;2022-07-18T05:48:09;5.35;;;1.95;;
36855;SDS011;22788;51.434;6.786;2022-07-18T05:50:35;2.55;;;1.80;;
36855;SDS011;22788;51.434;6.786;2022-07-18T05:53:01;3.45;;;1.60;;
36855;SDS011;22788;51.434;6.786;2022-07-18T05:55:29;2.28;;;1.38;;
36855;SDS011;22788;51.434;6.786;2022-07-18T05:57:56;2.25;;;1.65;;
36855;SDS011;22788;51.434;6.786;2022-07-18T06:00:22;2.88;;;1.77;;
36855;SDS011;22788;51.434;6.786;2022-07-18T06:02:49;3.47;;;1.60;;
36855;SDS011;22788;51.434;6.786;2022-07-18T06:05:16;2.60;;;1.58;;
36855;SDS011;22788;51.434;6.786;2022-07-18T06:07:42;4.65;;;1.40;;
36855;SDS011;22788;51.434;6.786;2022-07-18T06:10:09;2.15;;;1.63;;
36855;SDS011;22788;51.434;6.786;2022-07-18T06:12:36;2.90;;;1.50;;
36855;SDS011;22788;51.434;6.786;2022-07-18T06:15:03;4.93;;;1.88;;
36855;SDS011;22788;51.434;6.786;2022-07-18T06:17:30;2.75;;;1.73;;
36855;SDS011;22788;51.434;6.786;2022-07-18T06:19:56;2.47;;;1.40;;
36855;SDS011;22788;51.434;6.786;2022-07-18T06:22:24;3.30;;;1.50;;
36855;SDS011;22788;51.434;6.786;2022-07-18T06:24:56;4.13;;;1.70;;
36855;SDS011;22788;51.434;6.786;2022-07-18T06:27:22;3.20;;;1.50;;
36855;SDS011;22788;51.434;6.786;2022-07-18T06:29:50;3.45;;;1.77;;
36855;SDS011;22788;51.434;6.786;2022-07-18T06:32:16;4.32;;;1.60;;
36855;SDS011;22788;51.434;6.786;2022-07-18T06:34:42;2.95;;;1.60;;
36855;SDS011;22788;51.434;6.786;2022-07-18T06:37:08;4.72;;;1.45;;
36855;SDS011;22788;51.434;6.786;2022-07-18T06:39:34;3.58;;;1.67;;
36855;SDS011;22788;51.434;6.786;2022-07-18T06:42:00;2.75;;;1.33;;
36855;SDS011;22788;51.434;6.786;2022-07-18T06:44:26;4.05;;;1.50;;
36855;SDS011;22788;51.434;6.786;2022-07-18T06:46:54;2.53;;;1.42;;
36855;SDS011;22788;51.434;6.786;2022-07-18T06:49:20;3.05;;;1.33;;
36855;SDS011;22788;51.434;6.786;2022-07-18T06:51:46;4.65;;;1.63;;
36855;SDS011;22788;51.434;6.786;2022-07-18T06:54:12;1.65;;;1.27;;
36855;SDS011;22788;51.434;6.786;2022-07-18T06:56:38;3.70;;;1.70;;
36855;SDS011;22788;51.434;6.786;2022-07-18T06:59:04;3.38;;;1.38;;
36855;SDS011;22788;51.434;6.786;2022-07-18T07:01:30;4.18;;;1.60;;
36855;SDS011;22788;51.434;6.786;2022-07-18T07:03:58;8.32;;;1.52;;
36855;SDS011;22788;51.434;6.786;2022-07-18T07:06:24;5.90;;;1.45;;
36855;SDS011;22788;51.434;6.786;2022-07-18T07:08:50;1.58;;;0.98;;
36855;SDS011;22788;51.434;6.786;2022-07-18T07:11:16;3.45;;;1.58;;
36855;SDS011;22788;51.434;6.786;2022-07-18T07:13:42;1.67;;;1.13;;
36855;SDS011;22788;51.434;6.786;2022-07-18T07:16:08;2.20;;;1.60;;
36855;SDS011;22788;51.434;6.786;2022-07-18T07:18:34;1.63;;;1.13;;
36855;SDS011;22788;51.434;6.786;2022-07-18T07:21:02;1.45;;;1.35;;
36855;SDS011;22788;51.434;6.786;2022-07-18T07:23:28;2.60;;;1.60;;
36855;SDS011;22788;51.434;6.786;2022-07-18T07:25:54;2.55;;;1.60;;
36855;SDS011;22788;51.434;6.786;2022-07-18T07:28:20;8.02;;;1.85;;
36855;SDS011;22788;51.434;6.786;2022-07-18T07:30:46;3.60;;;1.35;;
36855;SDS011;22788;51.434;6.786;2022-07-18T07:33:12;1.52;;;1.33;;
36855;SDS011;22788;51.434;6.786;2022-07-18T07:35:38;1.63;;;1.23;;
36855;SDS011;22788;51.434;6.786;2022-07-18T07:38:06;1.63;;;1.40;;
36855;SDS011;22788;51.434;6.786;2022-07-18T07:40:32;2.50;;;1.30;;
36855;SDS011;22788;51.434;6.786;2022-07-18T07:43:04;2.67;;;1.33;;
36855;SDS011;22788;51.434;6.786;2022-07-18T07:45:31;1.33;;;1.20;;
36855;SDS011;22788;51.434;6.786;2022-07-18T07:47:57;3.15;;;1.63;;
36855;SDS011;22788;51.434;6.786;2022-07-18T07:50:23;3.03;;;1.48;;
36855;SDS011;22788;51.434;6.786;2022-07-18T07:52:49;3.75;;;1.63;;
36855;SDS011;22788;51.434;6.786;2022-07-18T07:55:17;2.40;;;1.30;;
36855;SDS011;22788;51.434;6.786;2022-07-18T07:57:43;1.52;;;1.30;;
36855;SDS011;22788;51.434;6.786;2022-07-18T08:00:09;2.88;;;1.50;;
36855;SDS011;22788;51.434;6.786;2022-07-18T08:02:35;3.33;;;1.25;;
36855;SDS011;22788;51.434;6.786;2022-07-18T08:05:02;2.25;;;1.45;;
36855;SDS011;22788;51.434;6.786;2022-07-18T08:07:29;2.67;;;1.40;;
36855;SDS011;22788;51.434;6.786;2022-07-18T08:09:55;2.83;;;1.35;;
36855;SDS011;22788;51.434;6.786;2022-07-18T08:12:22;1.50;;;1.23;;
36855;SDS011;22788;51.434;6.786;2022-07-18T08:14:49;3.00;;;1.50;;
36855;SDS011;22788;51.434;6.786;2022-07-18T08:17:15;1.98;;;1.20;;
36855;SDS011;22788;51.434;6.786;2022-07-18T08:19:41;2.00;;;1.30;;
36855;SDS011;22788;51.434;6.786;2022-07-18T08:22:07;1.45;;;1.10;;
36855;SDS011;22788;51.434;6.786;2022-07-18T08:24:33;3.33;;;1.10;;
36855;SDS011;22788;51.434;6.786;2022-07-18T08:26:59;1.50;;;1.25;;
36855;SDS011;22788;51.434;6.786;2022-07-18T08:29:26;2.10;;;1.20;;
36855;SDS011;22788;51.434;6.786;2022-07-18T08:31:52;2.22;;;1.33;;
36855;SDS011;22788;51.434;6.786;2022-07-18T08:34:18;1.65;;;1.27;;
36855;SDS011;22788;51.434;6.786;2022-07-18T08:36:44;1.83;;;1.30;;
36855;SDS011;22788;51.434;6.786;2022-07-18T08:39:10;1.35;;;1.00;;
36855;SDS011;22788;51.434;6.786;2022-07-18T08:41:37;1.70;;;1.00;;
36855;SDS011;22788;51.434;6.786;2022-07-18T08:44:07;1.65;;;1.33;;
36855;SDS011;22788;51.434;6.786;2022-07-18T08:46:35;1.63;;;1.45;;
36855;SDS011;22788;51.434;6.786;2022-07-18T08:49:04;1.55;;;1.25;;
36855;SDS011;22788;51.434;6.786;2022-07-18T08:51:30;2.40;;;1.33;;
36855;SDS011;22788;51.434;6.786;2022-07-18T08:53:57;1.15;;;1.05;;
36855;SDS011;22788;51.434;6.786;2022-07-18T08:56:24;4.32;;;1.60;;
36855;SDS011;22788;51.434;6.786;2022-07-18T08:58:50;3.47;;;1.40;;
36855;SDS011;22788;51.434;6.786;2022-07-18T09:01:16;1.95;;;1.30;;
36855;SDS011;22788;51.434;6.786;2022-07-18T09:03:44;2.55;;;1.27;;
36855;SDS011;22788;51.434;6.786;2022-07-18T09:06:10;2.78;;;1.20;;
36855;SDS011;22788;51.434;6.786;2022-07-18T09:08:38;2.28;;;1.20;;
36855;SDS011;22788;51.434;6.786;2022-07-18T09:11:09;3.97;;;1.17;;
36855;SDS011;22788;51.434;6.786;2022-07-18T09:13:36;3.83;;;1.50;;
36855;SDS011;22788;51.434;6.786;2022-07-18T09:16:05;3.83;;;1.30;;
36855;SDS011;22788;51.434;6.786;2022-07-18T09:18:33;2.05;;;1.13;;
36855;SDS011;22788;51.434;6.786;2022-07-18T09:21:02;3.28;;;1.10;;
36855;SDS011;22788;51.434;6.786;2022-07-18T09:23:29;3.45;;;1.40;;
36855;SDS011;22788;51.434;6.786;2022-07-18T09:25:56;3.70;;;1.60;;
36855;SDS011;22788;51.434;6.786;2022-07-18T09:28:22;1.58;;;1.20;;
36855;SDS011;22788;51.434;6.786;2022-07-18T09:30:48;1.67;;;1.20;;
36855;SDS011;22788;51.434;6.786;2022-07-18T09:33:14;2.15;;;1.38;;
36855;SDS011;22788;51.434;6.786;2022-07-18T09:35:42;3.33;;;1.50;;
36855;SDS011;22788;51.434;6.786;2022-07-18T09:38:11;3.10;;;1.58;;
36855;SDS011;22788;51.434;6.786;2022-07-18T09:40:39;3.80;;;1.35;;
36855;SDS011;22788;51.434;6.786;2022-07-18T09:43:06;4.43;;;1.63;;
36855;SDS011;22788;51.434;6.786;2022-07-18T09:45:34;2.05;;;1.40;;
36855;SDS011;22788;51.434;6.786;2022-07-18T09:48:02;3.10;;;1.38;;
36855;SDS011;22788;51.434;6.786;2022-07-18T09:50:30;3.17;;;1.70;;
36855;SDS011;22788;51.434;6.786;2022-07-18T09:53:03;5.25;;;1.25;;
36855;SDS011;22788;51.434;6.786;2022-07-18T09:55:35;6.45;;;1.30;;
36855;SDS011;22788;51.434;6.786;2022-07-18T09:58:07;4.60;;;1.40;;
36855;SDS011;22788;51.434;6.786;2022-07-18T10:00:34;6.05;;;1.95;;
36855;SDS011;22788;51.434;6.786;2022-07-18T10:03:03;3.53;;;1.50;;
36855;SDS011;22788;51.434;6.786;2022-07-18T10:05:32;3.00;;;1.67;;
36855;SDS011;22788;51.434;6.786;2022-07-18T10:07:59;4.30;;;1.40;;
36855;SDS011;22788;51.434;6.786;2022-07-18T10:10:27;3.50;;;1.80;;
36855;SDS011;22788;51.434;6.786;2022-07-18T10:12:56;4.57;;;1.98;;
36855;SDS011;22788;51.434;6.786;2022-07-18T10:15:24;4.20;;;1.40;;
36855;SDS011;22788;51.434;6.786;2022-07-18T10:17:51;4.95;;;1.88;;
36855;SDS011;22788;51.434;6.786;2022-07-18T10:20:17;2.15;;;1.33;;
36855;SDS011;22788;51.434;6.786;2022-07-18T10:22:51;7.22;;;2.10;;
36855;SDS011;22788;51.434;6.786;2022-07-18T10:25:20;5.63;;;1.90;;
36855;SDS011;22788;51.434;6.786;2022-07-18T10:27:48;2.05;;;1.50;;
36855;SDS011;22788;51.434;6.786;2022-07-18T10:30:16;2.85;;;1.50;;
36855;SDS011;22788;51.434;6.786;2022-07-18T10:32:43;1.67;;;1.40;;
36855;SDS011;22788;51.434;6.786;2022-07-18T10:35:09;2.05;;;1.23;;
36855;SDS011;22788;51.434;6.786;2022-07-18T10:37:40;3.10;;;1.80;;
36855;SDS011;22788;51.434;6.786;2022-07-18T10:40:21;2.72;;;1.80;;
36855;SDS011;22788;51.434;6.786;2022-07-18T10:45:58;3.85;;;1.80;;
36855;SDS011;22788;51.434;6.786;2022-07-18T10:51:27;2.10;;;1.60;;
36855;SDS011;22788;51.434;6.786;2022-07-18T10:54:06;1.73;;;1.50;;
36855;SDS011;22788;51.434;6.786;2022-07-18T10:59:31;1.80;;;1.50;;
36855;SDS011;22788;51.434;6.786;2022-07-18T11:01:59;2.10;;;1.50;;
36855;SDS011;22788;51.434;6.786;2022-07-18T11:04:26;4.28;;;1.58;;
36855;SDS011;22788;51.434;6.786;2022-07-18T11:06:53;3.47;;;1.98;;
36855;SDS011;22788;51.434;6.786;2022-07-18T11:09:29;3.38;;;1.95;;
36855;SDS011;22788;51.434;6.786;2022-07-18T11:14:59;2.38;;;1.50;;
36855;SDS011;22788;51.434;6.786;2022-07-18T11:20:25;5.93;;;2.10;;
36855;SDS011;22788;51.434;6.786;2022-07-18T11:22:53;3.47;;;1.80;;
36855;SDS011;22788;51.434;6.786;2022-07-18T11:25:20;3.75;;;1.90;;
36855;SDS011;22788;51.434;6.786;2022-07-18T11:27:50;2.45;;;1.73;;
36855;SDS011;22788;51.434;6.786;2022-07-18T11:30:17;2.45;;;1.85;;
36855;SDS011;22788;51.434;6.786;2022-07-18T11:32:44;3.85;;;2.08;;
36855;SDS011;22788;51.434;6.786;2022-07-18T11:35:11;3.05;;;1.67;;
36855;SDS011;22788;51.434;6.786;2022-07-18T11:37:38;2.10;;;1.52;;
36855;SDS011;22788;51.434;6.786;2022-07-18T11:40:05;2.13;;;1.77;;
36855;SDS011;22788;51.434;6.786;2022-07-18T11:42:35;7.43;;;1.90;;
36855;SDS011;22788;51.434;6.786;2022-07-18T11:45:02;4.38;;;1.70;;
36855;SDS011;22788;51.434;6.786;2022-07-18T11:47:29;2.72;;;1.73;;
36855;SDS011;22788;51.434;6.786;2022-07-18T11:49:55;3.05;;;2.08;;
36855;SDS011;22788;51.434;6.786;2022-07-18T11:52:23;2.42;;;1.63;;
36855;SDS011;22788;51.434;6.786;2022-07-18T11:54:49;4.57;;;1.90;;
36855;SDS011;22788;51.434;6.786;2022-07-18T11:57:25;4.05;;;2.10;;
36855;SDS011;22788;51.434;6.786;2022-07-18T11:59:51;5.10;;;2.10;;
36855;SDS011;22788;51.434;6.786;2022-07-18T12:02:17;6.13;;;2.00;;
36855;SDS011;22788;51.434;6.786;2022-07-18T12:04:44;3.20;;;2.00;;
36855;SDS011;22788;51.434;6.786;2022-07-18T12:07:17;3.45;;;2.22;;
36855;SDS011;22788;51.434;6.786;2022-07-18T12:09:45;2.70;;;1.70;;
36855;SDS011;22788;51.434;6.786;2022-07-18T12:12:12;4.50;;;1.88;;
36855;SDS011;22788;51.434;6.786;2022-07-18T12:14:40;4.85;;;1.90;;
36855;SDS011;22788;51.434;6.786;2022-07-18T12:17:06;2.75;;;1.85;;
36855;SDS011;22788;51.434;6.786;2022-07-18T12:19:33;4.47;;;2.00;;
36855;SDS011;22788;51.434;6.786;2022-07-18T12:22:04;3.10;;;1.50;;
36855;SDS011;22788;51.434;6.786;2022-07-18T12:24:32;5.63;;;1.88;;
36855;SDS011;22788;51.434;6.786;2022-07-18T12:30:04;2.38;;;2.00;;
36855;SDS011;22788;51.434;6.786;2022-07-18T12:32:39;3.55;;;1.92;;
36855;SDS011;22788;51.434;6.786;2022-07-18T12:35:07;2.17;;;1.60;;
36855;SDS011;22788;51.434;6.786;2022-07-18T12:37:35;3.20;;;1.88;;
36855;SDS011;22788;51.434;6.786;2022-07-18T12:40:03;3.15;;;1.90;;
36855;SDS011;22788;51.434;6.786;2022-07-18T12:42:31;3.08;;;1.73;;
36855;SDS011;22788;51.434;6.786;2022-07-18T12:45:00;3.35;;;2.00;;
36855;SDS011;22788;51.434;6.786;2022-07-18T12:47:26;3.75;;;1.90;;
36855;SDS011;22788;51.434;6.786;2022-07-18T12:49:52;4.75;;;2.10;;
36855;SDS011;22788;51.434;6.786;2022-07-18T12:52:19;4.20;;;2.08;;
36855;SDS011;22788;51.434;6.786;2022-07-18T12:54:45;2.50;;;1.80;;
36855;SDS011;22788;51.434;6.786;2022-07-18T12:57:11;4.43;;;2.25;;
36855;SDS011;22788;51.434;6.786;2022-07-18T12:59:38;2.60;;;1.92;;
36855;SDS011;22788;51.434;6.786;2022-07-18T13:02:05;5.10;;;1.80;;
36855;SDS011;22788;51.434;6.786;2022-07-18T13:04:32;3.38;;;1.75;;
36855;SDS011;22788;51.434;6.786;2022-07-18T13:06:58;4.45;;;1.98;;
36855;SDS011;22788;51.434;6.786;2022-07-18T13:09:24;2.88;;;1.70;;
36855;SDS011;22788;51.434;6.786;2022-07-18T13:11:50;4.13;;;2.08;;
36855;SDS011;22788;51.434;6.786;2022-07-18T13:14:17;3.83;;;2.05;;
36855;SDS011;22788;51.434;6.786;2022-07-18T13:16:43;3.65;;;1.90;;
36855;SDS011;22788;51.434;6.786;2022-07-18T13:19:11;2.83;;;1.88;;
36855;SDS011;22788;51.434;6.786;2022-07-18T13:21:37;4.82;;;1.75;;
36855;SDS011;22788;51.434;6.786;2022-07-18T13:24:04;5.72;;;1.92;;
36855;SDS011;22788;51.434;6.786;2022-07-18T13:26:30;2.95;;;1.80;;
36855;SDS011;22788;51.434;6.786;2022-07-18T13:28:56;4.13;;;1.80;;
36855;SDS011;22788;51.434;6.786;2022-07-18T13:31:22;6.90;;;1.95;;
36855;SDS011;22788;51.434;6.786;2022-07-18T13:33:49;3.03;;;1.65;;
36855;SDS011;22788;51.434;6.786;2022-07-18T13:36:16;2.20;;;1.65;;
36855;SDS011;22788;51.434;6.786;2022-07-18T13:38:42;3.42;;;1.80;;
36855;SDS011;22788;51.434;6.786;2022-07-18T13:41:09;3.08;;;1.85;;
36855;SDS011;22788;51.434;6.786;2022-07-18T13:43:35;6.00;;;1.90;;
36855;SDS011;22788;51.434;6.786;2022-07-18T13:46:02;5.57;;;2.00;;
36855;SDS011;22788;51.434;6.786;2022-07-18T13:48:28;2.85;;;1.67;;
36855;SDS011;22788;51.434;6.786;2022-07-18T13:50:54;7.47;;;1.67;;
36855;SDS011;22788;51.434;6.786;2022-07-18T13:53:21;2.17;;;1.50;;
36855;SDS011;22788;51.434;6.786;2022-07-18T13:55:47;4.70;;;1.80;;
36855;SDS011;22788;51.434;6.786;2022-07-18T13:58:14;5.03;;;1.77;;
36855;SDS011;22788;51.434;6.786;2022-07-18T14:00:40;2.28;;;1.83;;
36855;SDS011;22788;51.434;6.786;2022-07-18T14:03:06;3.05;;;1.67;;
36855;SDS011;22788;51.434;6.786;2022-07-18T14:05:32;4.75;;;2.25;;
36855;SDS011;22788;51.434;6.786;2022-07-18T14:07:58;5.03;;;1.95;;
36855;SDS011;22788;51.434;6.786;2022-07-18T14:10:25;3.03;;;1.73;;
36855;SDS011;22788;51.434;6.786;2022-07-18T14:12:52;4.18;;;1.98;;
36855;SDS011;22788;51.434;6.786;2022-07-18T14:15:18;3.75;;;1.67;;
36855;SDS011;22788;51.434;6.786;2022-07-18T14:17:44;2.30;;;1.85;;
36855;SDS011;22788;51.434;6.786;2022-07-18T14:20:11;3.28;;;1.98;;
36855;SDS011;22788;51.434;6.786;2022-07-18T14:22:37;4.32;;;2.00;;
36855;SDS011;22788;51.434;6.786;2022-07-18T14:25:05;4.57;;;2.20;;
36855;SDS011;22788;51.434;6.786;2022-07-18T14:27:34;2.95;;;1.48;;
36855;SDS011;22788;51.434;6.786;2022-07-18T14:30:00;4.90;;;1.90;;
36855;SDS011;22788;51.434;6.786;2022-07-18T14:32:26;11.15;;;2.15;;
36855;SDS011;22788;51.434;6.786;2022-07-18T14:34:53;7.95;;;2.67;;
36855;SDS011;22788;51.434;6.786;2022-07-18T14:37:19;9.37;;;2.60;;
36855;SDS011;22788;51.434;6.786;2022-07-18T14:39:46;9.30;;;2.80;;
36855;SDS011;22788;51.434;6.786;2022-07-18T14:42:12;6.28;;;2.55;;
36855;SDS011;22788;51.434;6.786;2022-07-18T14:44:40;7.43;;;2.55;;
36855;SDS011;22788;51.434;6.786;2022-07-18T14:47:06;8.95;;;2.20;;
36855;SDS011;22788;51.434;6.786;2022-07-18T14:49:33;8.80;;;2.22;;
36855;SDS011;22788;51.434;6.786;2022-07-18T14:51:59;7.20;;;2.83;;
36855;SDS011;22788;51.434;6.786;2022-07-18T14:54:26;8.48;;;2.35;;
36855;SDS011;22788;51.434;6.786;2022-07-18T14:56:52;7.22;;;2.42;;
36855;SDS011;22788;51.434;6.786;2022-07-18T14:59:19;4.85;;;2.05;;
36855;SDS011;22788;51.434;6.786;2022-07-18T15:01:47;4.55;;;2.40;;
36855;SDS011;22788;51.434;6.786;2022-07-18T15:04:13;8.85;;;2.45;;